createdAt,value
2022-10-01T00:03:06.678Z,1.20
2022-10-01T00:06:18.598Z,1.27
2022-10-01T00:09:27.231Z,1.30
2022-10-01T00:12:35.919Z,1.30
2022-10-01T00:15:44.322Z,1.50
2022-10-01T00:18:54.160Z,1.80
2022-10-01T00:22:04.072Z,1.20
2022-10-01T00:25:12.649Z,1.10
2022-10-01T00:28:21.127Z,1.17
2022-10-01T00:31:30.456Z,1.20
2022-10-01T00:34:38.969Z,1.17
2022-10-01T00:37:50.665Z,1.50
2022-10-01T00:40:59.035Z,1.40
2022-10-01T00:44:33.312Z,1.80
2022-10-01T00:47:44.822Z,1.50
2022-10-01T00:50:53.928Z,2.03
2022-10-01T00:54:11.542Z,2.10
2022-10-01T00:57:24.272Z,2.00
2022-10-01T01:00:33.259Z,1.90
2022-10-01T01:03:41.726Z,2.20
2022-10-01T01:06:57.686Z,2.20
2022-10-01T01:10:09.249Z,2.60
2022-10-01T01:13:26.074Z,2.50
2022-10-01T01:16:40.548Z,2.33
2022-10-01T01:20:07.706Z,2.63
2022-10-01T01:24:01.525Z,2.50
2022-10-01T01:27:20.562Z,2.90
2022-10-01T01:30:32.978Z,2.67
2022-10-01T01:33:43.695Z,3.00
2022-10-01T01:36:59.973Z,3.10
2022-10-01T01:40:12.298Z,3.23
2022-10-01T01:43:25.311Z,3.53
2022-10-01T01:46:37.983Z,3.27
2022-10-01T01:49:49.696Z,3.50
2022-10-01T01:52:58.290Z,3.77
2022-10-01T01:56:08.200Z,3.60
2022-10-01T01:59:18.678Z,3.43
2022-10-01T02:02:33.231Z,3.90
2022-10-01T02:05:52.470Z,3.47
2022-10-01T02:09:08.870Z,3.80
2022-10-01T02:12:29.446Z,3.70
2022-10-01T02:15:46.989Z,3.60
2022-10-01T02:19:02.462Z,3.47
2022-10-01T02:22:14.227Z,3.60
2022-10-01T02:25:27.148Z,3.60
2022-10-01T02:28:38.558Z,3.70
2022-10-01T02:31:49.315Z,3.90
2022-10-01T02:35:00.343Z,4.10
2022-10-01T02:38:10.747Z,4.03
2022-10-01T02:41:26.011Z,3.67
2022-10-01T02:44:40.332Z,4.60
2022-10-01T02:47:54.466Z,4.33
2022-10-01T02:51:16.809Z,3.67
2022-10-01T02:54:30.216Z,4.17
2022-10-01T02:57:39.320Z,4.50
2022-10-01T03:00:47.792Z,4.40
2022-10-01T03:03:56.301Z,4.77
2022-10-01T03:07:06.201Z,4.30
2022-10-01T03:10:16.213Z,4.50
2022-10-01T03:13:24.773Z,4.57
2022-10-01T03:16:33.157Z,4.67
2022-10-01T03:19:41.670Z,4.53
2022-10-01T03:22:51.803Z,4.63
2022-10-01T03:26:00.208Z,4.17
2022-10-01T03:29:08.668Z,4.50
2022-10-01T03:32:17.412Z,4.33
2022-10-01T03:35:26.108Z,4.50
2022-10-01T03:38:35.977Z,4.57
2022-10-01T03:41:44.673Z,4.10
2022-10-01T03:44:53.093Z,4.23
2022-10-01T03:48:01.688Z,4.17
2022-10-01T03:51:10.129Z,4.27
2022-10-01T03:54:20.339Z,4.20
2022-10-01T03:57:28.885Z,4.57
2022-10-01T04:00:37.303Z,4.00
2022-10-01T04:03:45.747Z,4.10
2022-10-01T04:06:54.174Z,3.87
2022-10-01T04:10:04.131Z,4.40
2022-10-01T04:13:12.518Z,4.27
2022-10-01T04:16:21.097Z,4.40
2022-10-01T04:19:29.643Z,3.93
2022-10-01T04:22:42.117Z,3.53
2022-10-01T04:25:52.385Z,4.47
2022-10-01T04:29:00.864Z,4.13
2022-10-01T04:32:09.316Z,4.60
2022-10-01T04:35:17.766Z,4.10
2022-10-01T04:38:26.540Z,4.17
2022-10-01T04:41:36.638Z,4.00
2022-10-01T04:44:45.302Z,4.40
2022-10-01T04:47:55.497Z,4.33
2022-10-01T04:51:03.904Z,4.80
2022-10-01T04:54:12.327Z,4.30
2022-10-01T04:57:22.133Z,3.97
2022-10-01T05:00:30.664Z,4.20
2022-10-01T05:03:39.150Z,4.53
2022-10-01T05:06:47.620Z,4.27
2022-10-01T05:09:56.054Z,4.03
2022-10-01T05:13:06.079Z,4.77
2022-10-01T05:16:14.556Z,4.77
2022-10-01T05:19:27.371Z,4.50
2022-10-01T05:22:36.464Z,4.97
2022-10-01T05:25:47.030Z,4.90
2022-10-01T05:28:57.025Z,4.90
2022-10-01T05:32:06.022Z,4.80
2022-10-01T05:35:14.483Z,4.73
2022-10-01T05:38:22.943Z,4.80
2022-10-01T05:41:31.638Z,4.90
2022-10-01T05:44:46.220Z,4.50
2022-10-01T05:47:59.148Z,4.60
2022-10-01T05:51:08.388Z,4.50
2022-10-01T05:54:19.579Z,4.87
2022-10-01T05:57:28.105Z,4.53
2022-10-01T06:00:39.261Z,4.40
2022-10-01T06:03:47.656Z,4.70
2022-10-01T06:06:56.238Z,4.50
2022-10-01T06:10:05.434Z,5.20
2022-10-01T06:13:16.642Z,4.43
2022-10-01T06:16:26.609Z,4.63
2022-10-01T06:19:35.134Z,4.57
2022-10-01T06:22:44.793Z,4.40
2022-10-01T06:25:53.268Z,4.67
2022-10-01T06:29:03.562Z,4.73
2022-10-01T06:32:18.702Z,4.27
2022-10-01T06:35:27.093Z,4.73
2022-10-01T06:38:35.653Z,4.20
2022-10-01T06:41:44.150Z,4.20
2022-10-01T06:44:56.684Z,4.20
2022-10-01T06:48:06.901Z,4.00
2022-10-01T06:51:15.345Z,4.20
2022-10-01T06:54:23.785Z,4.20
2022-10-01T06:57:34.199Z,4.07
2022-10-01T07:00:43.385Z,3.93
2022-10-01T07:03:54.232Z,4.00
2022-10-01T07:07:02.631Z,3.80
2022-10-01T07:10:12.390Z,3.57
2022-10-01T07:13:21.800Z,3.80
2022-10-01T07:16:30.417Z,3.43
2022-10-01T07:19:40.300Z,3.83
2022-10-01T07:22:49.806Z,3.70
2022-10-01T07:25:59.044Z,3.57
2022-10-01T07:29:08.947Z,3.33
2022-10-01T07:32:17.399Z,3.23
2022-10-01T07:35:27.355Z,3.00
2022-10-01T07:38:36.399Z,3.13
2022-10-01T07:41:45.080Z,2.80
2022-10-01T07:44:53.579Z,3.60
2022-10-01T07:48:04.295Z,2.50
2022-10-01T07:51:14.187Z,2.97
2022-10-01T07:54:23.071Z,2.77
2022-10-01T07:57:31.660Z,3.00
2022-10-01T08:00:40.440Z,3.13
2022-10-01T08:03:50.248Z,2.80
2022-10-01T08:07:00.664Z,2.53
2022-10-01T08:10:09.505Z,2.70
2022-10-01T08:13:18.965Z,2.67
2022-10-01T08:16:29.299Z,2.80
2022-10-01T08:19:37.813Z,2.33
2022-10-01T08:22:47.597Z,2.60
2022-10-01T08:26:01.000Z,2.30
2022-10-01T08:29:11.635Z,2.30
2022-10-01T08:32:25.567Z,2.60
2022-10-01T08:35:34.082Z,2.60
2022-10-01T08:38:47.598Z,2.33
2022-10-01T08:42:04.943Z,2.50
2022-10-01T08:45:16.958Z,2.30
2022-10-01T08:48:37.803Z,2.33
2022-10-01T08:51:52.211Z,2.20
2022-10-01T08:55:06.797Z,2.30
2022-10-01T08:58:26.870Z,2.00
2022-10-01T09:01:35.636Z,2.00
2022-10-01T09:04:44.408Z,2.10
2022-10-01T09:08:06.580Z,2.00
2022-10-01T09:11:50.208Z,1.90
2022-10-01T09:15:16.001Z,2.00
2022-10-01T09:18:33.253Z,2.20
2022-10-01T09:21:56.728Z,1.80
2022-10-01T09:25:13.633Z,1.87
2022-10-01T09:28:26.045Z,2.10
2022-10-01T09:31:39.242Z,2.03
2022-10-01T09:34:48.593Z,1.70
2022-10-01T09:38:01.345Z,1.70
2022-10-01T09:41:11.839Z,1.90
2022-10-01T09:44:27.812Z,1.90
2022-10-01T09:47:36.296Z,1.90
2022-10-01T09:50:50.468Z,1.70
2022-10-01T09:54:06.144Z,1.80
2022-10-01T09:57:18.548Z,2.07
2022-10-01T10:00:29.162Z,1.67
2022-10-01T10:03:37.729Z,1.80
2022-10-01T10:06:46.341Z,1.60
2022-10-01T10:09:54.907Z,1.90
2022-10-01T10:13:06.484Z,1.83
2022-10-01T10:16:21.992Z,1.80
2022-10-01T10:19:31.136Z,1.90
2022-10-01T10:22:39.654Z,1.70
2022-10-01T10:25:56.318Z,1.87
2022-10-01T10:29:07.549Z,1.70
2022-10-01T10:32:28.263Z,2.10
2022-10-01T10:35:37.174Z,1.80
2022-10-01T10:38:49.692Z,1.83
2022-10-01T10:41:59.690Z,2.07
2022-10-01T10:45:18.163Z,1.87
2022-10-01T10:48:32.690Z,1.87
2022-10-01T10:51:54.086Z,1.73
2022-10-01T10:55:18.598Z,1.60
2022-10-01T10:58:28.255Z,1.80
2022-10-01T11:01:43.962Z,1.80
2022-10-01T11:04:55.080Z,2.00
2022-10-01T11:08:06.150Z,1.83
2022-10-01T11:11:32.379Z,1.73
2022-10-01T11:14:54.507Z,1.90
2022-10-01T11:18:27.053Z,2.10
2022-10-01T11:21:51.547Z,1.87
2022-10-01T11:25:20.634Z,1.67
2022-10-01T11:28:38.530Z,1.70
2022-10-01T11:31:53.892Z,1.50
2022-10-01T11:35:22.093Z,1.20
2022-10-01T11:38:49.613Z,1.30
2022-10-01T11:42:03.559Z,1.60
2022-10-01T11:45:19.622Z,0.90
2022-10-01T11:48:32.727Z,0.90
2022-10-01T11:51:45.812Z,1.07
2022-10-01T11:55:23.830Z,0.70
2022-10-01T11:58:51.609Z,0.90
2022-10-01T12:02:13.054Z,1.30
2022-10-01T12:05:24.240Z,1.17
2022-10-01T12:08:36.722Z,1.17
2022-10-01T12:11:52.863Z,0.87
2022-10-01T12:15:10.047Z,0.80
2022-10-01T12:18:25.820Z,1.00
2022-10-01T12:21:39.268Z,1.07
2022-10-01T12:24:48.664Z,1.27
2022-10-01T12:28:07.692Z,1.00
2022-10-01T12:31:21.863Z,1.20
2022-10-01T12:34:40.169Z,1.30
2022-10-01T12:38:05.153Z,1.30
2022-10-01T12:41:30.024Z,1.40
2022-10-01T12:44:53.557Z,1.60
2022-10-01T12:48:08.446Z,1.80
2022-10-01T12:51:34.615Z,1.83
2022-10-01T12:55:08.408Z,1.60
2022-10-01T12:58:33.299Z,1.80
2022-10-01T13:01:55.729Z,1.50
2022-10-01T13:05:20.132Z,1.60
2022-10-01T13:08:46.595Z,1.70
2022-10-01T13:12:11.370Z,1.90
2022-10-01T13:15:23.440Z,1.90
2022-10-01T13:18:46.646Z,1.90
2022-10-01T13:22:08.673Z,1.90
2022-10-01T13:25:26.459Z,1.97
2022-10-01T13:28:51.773Z,2.07
2022-10-01T13:32:02.029Z,2.10
2022-10-01T13:35:29.428Z,2.10
2022-10-01T13:38:46.138Z,2.20
2022-10-01T13:41:58.618Z,1.80
2022-10-01T13:45:11.816Z,1.50
2022-10-01T13:48:26.142Z,1.80
2022-10-01T13:51:41.447Z,1.50
2022-10-01T13:54:53.503Z,1.50
2022-10-01T13:58:07.217Z,1.37
2022-10-01T14:01:30.879Z,1.50
2022-10-01T14:04:41.580Z,1.60
2022-10-01T14:07:56.700Z,1.37
2022-10-01T14:11:28.208Z,1.60
2022-10-01T14:14:56.225Z,1.40
2022-10-01T14:18:08.900Z,1.70
2022-10-01T14:21:42.281Z,1.67
2022-10-01T14:25:10.714Z,1.67
2022-10-01T14:28:31.700Z,1.90
2022-10-01T14:31:51.482Z,1.80
2022-10-01T14:35:10.843Z,1.63
2022-10-01T14:38:21.965Z,1.60
2022-10-01T14:41:36.163Z,1.80
2022-10-01T14:44:46.592Z,1.50
2022-10-01T14:48:04.702Z,1.67
2022-10-01T14:51:27.634Z,2.17
2022-10-01T14:54:43.773Z,1.77
2022-10-01T14:57:56.200Z,1.87
2022-10-01T15:01:06.178Z,1.80
2022-10-01T15:04:20.874Z,1.80
2022-10-01T15:07:36.866Z,1.63
2022-10-01T15:10:51.130Z,1.50
2022-10-01T15:14:04.839Z,1.47
2022-10-01T15:17:20.529Z,1.80
2022-10-01T15:20:31.303Z,1.70
2022-10-01T15:23:41.722Z,2.10
2022-10-01T15:26:52.126Z,1.40
2022-10-01T15:30:03.433Z,1.10
2022-10-01T15:33:26.771Z,1.30
2022-10-01T15:36:37.201Z,1.30
2022-10-01T15:39:50.251Z,1.23
2022-10-01T15:43:28.780Z,1.27
2022-10-01T15:46:39.166Z,1.27
2022-10-01T15:50:03.234Z,1.30
2022-10-01T15:53:19.595Z,1.20
2022-10-01T15:56:28.216Z,1.27
2022-10-01T15:59:40.769Z,1.20
2022-10-01T16:02:51.157Z,1.20
2022-10-01T16:06:02.002Z,1.30
2022-10-01T16:09:15.919Z,1.20
2022-10-01T16:12:27.630Z,1.10
2022-10-01T16:15:36.159Z,0.93
2022-10-01T16:18:52.453Z,1.00
2022-10-01T16:22:21.450Z,1.20
2022-10-01T16:25:33.928Z,1.20
2022-10-01T16:28:43.178Z,1.20
2022-10-01T16:31:52.187Z,1.40
2022-10-01T16:35:20.838Z,1.30
2022-10-01T16:38:29.740Z,1.20
2022-10-01T16:41:38.374Z,1.10
2022-10-01T16:44:47.089Z,1.23
2022-10-01T16:47:57.883Z,1.20
2022-10-01T16:51:07.846Z,1.00
2022-10-01T16:54:23.832Z,1.13
2022-10-01T16:57:32.572Z,1.20
2022-10-01T17:00:41.161Z,1.27
2022-10-01T17:03:49.622Z,1.30
2022-10-01T17:06:59.498Z,1.40
2022-10-01T17:10:08.748Z,1.50
2022-10-01T17:13:17.444Z,1.30
2022-10-01T17:16:26.002Z,1.40
2022-10-01T17:19:34.479Z,1.43
2022-10-01T17:22:44.311Z,1.73
2022-10-01T17:25:52.953Z,1.40
2022-10-01T17:29:01.838Z,1.40
2022-10-01T17:32:12.387Z,1.30
2022-10-01T17:35:20.948Z,1.47
2022-10-01T17:38:30.957Z,1.20
2022-10-01T17:41:39.385Z,1.40
2022-10-01T17:44:47.798Z,1.50
2022-10-01T17:47:56.573Z,1.40
2022-10-01T17:51:07.214Z,1.50
2022-10-01T17:54:17.753Z,1.40
2022-10-01T17:57:26.277Z,1.60
2022-10-01T18:00:34.931Z,1.60
2022-10-01T18:03:43.319Z,1.40
2022-10-01T18:06:56.027Z,1.63
2022-10-01T18:10:10.550Z,1.70
2022-10-01T18:13:19.007Z,1.50
2022-10-01T18:16:28.659Z,1.50
2022-10-01T18:19:53.934Z,1.57
2022-10-01T18:23:02.995Z,1.50
2022-10-01T18:26:13.215Z,1.30
2022-10-01T18:29:24.299Z,1.33
2022-10-01T18:32:38.737Z,1.43
2022-10-01T18:35:47.328Z,1.30
2022-10-01T18:39:08.865Z,1.30
2022-10-01T18:42:23.095Z,1.20
2022-10-01T18:45:44.395Z,1.53
2022-10-01T18:49:14.476Z,1.50
2022-10-01T18:52:35.518Z,1.37
2022-10-01T18:56:16.418Z,1.27
2022-10-01T18:59:56.920Z,1.50
2022-10-01T19:03:28.601Z,1.40
2022-10-01T19:06:50.546Z,1.30
2022-10-01T19:10:09.805Z,1.30
2022-10-01T19:13:26.070Z,1.53
2022-10-01T19:16:48.675Z,1.40
2022-10-01T19:20:11.244Z,1.50
2022-10-01T19:23:58.994Z,1.40
2022-10-01T19:27:19.282Z,1.50
2022-10-01T19:30:34.930Z,1.30
2022-10-01T19:33:51.822Z,1.53
2022-10-01T19:37:06.131Z,1.57
2022-10-01T19:40:21.667Z,1.40
2022-10-01T19:43:34.542Z,1.40
2022-10-01T19:46:45.514Z,1.50
2022-10-01T19:49:58.439Z,1.50
2022-10-01T19:53:15.566Z,1.50
2022-10-01T19:56:28.289Z,1.40
2022-10-01T19:59:36.893Z,1.50
2022-10-01T20:02:53.158Z,1.43
2022-10-01T20:06:08.812Z,1.30
2022-10-01T20:09:26.041Z,1.20
2022-10-01T20:12:42.397Z,1.37
2022-10-01T20:16:01.413Z,1.57
2022-10-01T20:19:20.394Z,1.40
2022-10-01T20:22:38.568Z,1.47
2022-10-01T20:25:57.434Z,1.43
2022-10-01T20:29:18.437Z,1.60
2022-10-01T20:32:32.730Z,1.40
2022-10-01T20:35:51.114Z,1.50
2022-10-01T20:39:05.759Z,1.30
2022-10-01T20:42:20.742Z,1.30
2022-10-01T20:45:34.078Z,1.37
2022-10-01T20:48:45.674Z,1.20
2022-10-01T20:51:59.613Z,1.40
2022-10-01T20:55:15.372Z,1.40
2022-10-01T20:58:27.887Z,1.33
2022-10-01T21:01:42.579Z,1.27
2022-10-01T21:04:57.294Z,1.33
2022-10-01T21:08:12.117Z,1.17
2022-10-01T21:11:29.306Z,1.30
2022-10-01T21:14:41.781Z,1.50
2022-10-01T21:17:58.320Z,1.40
2022-10-01T21:21:16.717Z,1.53
2022-10-01T21:24:39.393Z,1.30
2022-10-01T21:28:09.469Z,1.50
2022-10-01T21:31:31.061Z,1.40
2022-10-01T21:34:52.749Z,1.50
2022-10-01T21:38:12.458Z,1.47
2022-10-01T21:41:37.293Z,1.30
2022-10-01T21:45:19.312Z,1.53
2022-10-01T21:48:38.460Z,1.40
2022-10-01T21:51:59.931Z,1.40
2022-10-01T21:55:23.382Z,1.40
2022-10-01T21:58:49.653Z,1.50
2022-10-01T22:02:09.702Z,1.50
2022-10-01T22:05:25.583Z,1.40
2022-10-01T22:08:57.564Z,1.20
2022-10-01T22:12:07.990Z,1.20
2022-10-01T22:15:24.856Z,1.60
2022-10-01T22:18:38.608Z,1.50
2022-10-01T22:21:50.488Z,1.60
2022-10-01T22:25:01.759Z,1.30
2022-10-01T22:28:18.725Z,1.33
2022-10-01T22:31:30.466Z,1.30
2022-10-01T22:34:45.274Z,1.17
2022-10-01T22:37:58.384Z,1.50
2022-10-01T22:41:11.373Z,1.47
2022-10-01T22:44:22.434Z,1.20
2022-10-01T22:47:54.636Z,1.40
2022-10-01T22:51:14.761Z,1.03
2022-10-01T22:54:35.430Z,1.63
2022-10-01T22:58:01.650Z,1.63
2022-10-01T23:01:17.113Z,1.20
2022-10-01T23:04:37.219Z,1.03
2022-10-01T23:07:58.168Z,1.20
2022-10-01T23:11:15.650Z,1.37
2022-10-01T23:14:42.394Z,1.37
2022-10-01T23:17:58.926Z,1.20
2022-10-01T23:21:19.287Z,1.27
2022-10-01T23:24:40.414Z,0.90
2022-10-01T23:28:06.827Z,1.53
2022-10-01T23:31:24.863Z,1.30
2022-10-01T23:34:45.406Z,1.40
2022-10-01T23:38:09.580Z,1.90
2022-10-01T23:41:26.625Z,1.30
2022-10-01T23:44:40.994Z,1.60
2022-10-01T23:47:57.362Z,1.40
2022-10-01T23:51:11.466Z,1.07
2022-10-01T23:54:26.718Z,1.33
2022-10-01T23:57:40.298Z,1.33
